sensor_id;sensor_type;location;lat;lon;timestamp;P1;durP1;ratioP1;P2;durP2;ratioP2
36827;SDS011;22766;48.042;11.192;2023-02-28T00:01:11;5.05;;;2.03;;
36827;SDS011;22766;48.042;11.192;2023-02-28T00:03:39;1.83;;;1.27;;
36827;SDS011;22766;48.042;11.192;2023-02-28T00:06:06;1.83;;;1.33;;
36827;SDS011;22766;48.042;11.192;2023-02-28T00:08:36;5.15;;;1.95;;
36827;SDS011;22766;48.042;11.192;2023-02-28T00:11:04;2.35;;;1.50;;
36827;SDS011;22766;48.042;11.192;2023-02-28T00:13:33;2.50;;;1.20;;
36827;SDS011;22766;48.042;11.192;2023-02-28T00:16:25;2.72;;;1.50;;
36827;SDS011;22766;48.042;11.192;2023-02-28T00:18:50;1.27;;;1.13;;
36827;SDS011;22766;48.042;11.192;2023-02-28T00:21:17;1.20;;;1.10;;
36827;SDS011;22766;48.042;11.192;2023-02-28T00:23:45;3.05;;;1.25;;
36827;SDS011;22766;48.042;11.192;2023-02-28T00:26:12;1.85;;;1.52;;
36827;SDS011;22766;48.042;11.192;2023-02-28T00:28:43;2.00;;;1.70;;
36827;SDS011;22766;48.042;11.192;2023-02-28T00:31:09;2.47;;;2.05;;
36827;SDS011;22766;48.042;11.192;2023-02-28T00:33:36;2.88;;;1.42;;
36827;SDS011;22766;48.042;11.192;2023-02-28T00:36:04;3.22;;;1.83;;
36827;SDS011;22766;48.042;11.192;2023-02-28T00:38:35;5.07;;;1.38;;
36827;SDS011;22766;48.042;11.192;2023-02-28T00:41:02;2.70;;;1.95;;
36827;SDS011;22766;48.042;11.192;2023-02-28T00:43:33;3.08;;;1.63;;
36827;SDS011;22766;48.042;11.192;2023-02-28T00:46:02;2.75;;;1.95;;
36827;SDS011;22766;48.042;11.192;2023-02-28T00:48:30;2.08;;;1.40;;
36827;SDS011;22766;48.042;11.192;2023-02-28T00:50:57;1.75;;;1.60;;
36827;SDS011;22766;48.042;11.192;2023-02-28T00:53:24;1.98;;;1.50;;
36827;SDS011;22766;48.042;11.192;2023-02-28T00:55:51;3.08;;;1.80;;
36827;SDS011;22766;48.042;11.192;2023-02-28T00:58:18;2.45;;;1.38;;
36827;SDS011;22766;48.042;11.192;2023-02-28T01:00:47;1.70;;;1.60;;
36827;SDS011;22766;48.042;11.192;2023-02-28T01:03:18;1.83;;;1.40;;
36827;SDS011;22766;48.042;11.192;2023-02-28T01:05:46;2.83;;;2.45;;
36827;SDS011;22766;48.042;11.192;2023-02-28T01:08:15;3.00;;;2.10;;
36827;SDS011;22766;48.042;11.192;2023-02-28T01:10:42;1.60;;;1.50;;
36827;SDS011;22766;48.042;11.192;2023-02-28T01:13:09;2.22;;;1.58;;
36827;SDS011;22766;48.042;11.192;2023-02-28T01:15:37;2.88;;;1.50;;
36827;SDS011;22766;48.042;11.192;2023-02-28T01:18:08;9.40;;;2.47;;
36827;SDS011;22766;48.042;11.192;2023-02-28T01:20:36;2.42;;;1.75;;
36827;SDS011;22766;48.042;11.192;2023-02-28T01:23:03;1.70;;;1.60;;
36827;SDS011;22766;48.042;11.192;2023-02-28T01:25:30;2.97;;;1.83;;
36827;SDS011;22766;48.042;11.192;2023-02-28T01:27:57;2.42;;;1.65;;
36827;SDS011;22766;48.042;11.192;2023-02-28T01:30:25;2.03;;;1.63;;
36827;SDS011;22766;48.042;11.192;2023-02-28T01:32:52;2.00;;;1.33;;
36827;SDS011;22766;48.042;11.192;2023-02-28T01:35:19;2.55;;;2.15;;
36827;SDS011;22766;48.042;11.192;2023-02-28T01:37:46;3.33;;;1.85;;
36827;SDS011;22766;48.042;11.192;2023-02-28T01:40:16;3.03;;;2.03;;
36827;SDS011;22766;48.042;11.192;2023-02-28T01:42:43;3.03;;;1.80;;
36827;SDS011;22766;48.042;11.192;2023-02-28T01:50:21;2.05;;;1.60;;
36827;SDS011;22766;48.042;11.192;2023-02-28T01:52:51;2.22;;;1.55;;
36827;SDS011;22766;48.042;11.192;2023-02-28T01:55:22;2.50;;;1.75;;
36827;SDS011;22766;48.042;11.192;2023-02-28T01:57:57;3.78;;;2.13;;
36827;SDS011;22766;48.042;11.192;2023-02-28T02:00:26;2.78;;;1.63;;
36827;SDS011;22766;48.042;11.192;2023-02-28T02:02:59;2.45;;;1.73;;
36827;SDS011;22766;48.042;11.192;2023-02-28T02:05:34;2.90;;;1.70;;
36827;SDS011;22766;48.042;11.192;2023-02-28T02:08:06;2.53;;;2.05;;
36827;SDS011;22766;48.042;11.192;2023-02-28T02:10:39;4.05;;;1.50;;
36827;SDS011;22766;48.042;11.192;2023-02-28T02:35:54;3.05;;;2.03;;
36827;SDS011;22766;48.042;11.192;2023-02-28T02:46:44;4.70;;;1.98;;
36827;SDS011;22766;48.042;11.192;2023-02-28T02:49:18;5.18;;;1.92;;
36827;SDS011;22766;48.042;11.192;2023-02-28T02:51:51;2.47;;;2.05;;
36827;SDS011;22766;48.042;11.192;2023-02-28T02:54:22;2.45;;;2.08;;
36827;SDS011;22766;48.042;11.192;2023-02-28T02:56:56;2.95;;;1.95;;
36827;SDS011;22766;48.042;11.192;2023-02-28T02:59:26;2.17;;;1.65;;
36827;SDS011;22766;48.042;11.192;2023-02-28T03:01:57;1.95;;;1.45;;
36827;SDS011;22766;48.042;11.192;2023-02-28T03:04:28;4.07;;;2.20;;
36827;SDS011;22766;48.042;11.192;2023-02-28T03:06:59;2.45;;;2.10;;
36827;SDS011;22766;48.042;11.192;2023-02-28T03:09:26;2.33;;;2.03;;
36827;SDS011;22766;48.042;11.192;2023-02-28T03:11:54;2.13;;;1.90;;
36827;SDS011;22766;48.042;11.192;2023-02-28T03:25:10;2.55;;;1.50;;
36827;SDS011;22766;48.042;11.192;2023-02-28T03:33:18;3.60;;;2.10;;
36827;SDS011;22766;48.042;11.192;2023-02-28T03:35:51;5.45;;;2.00;;
36827;SDS011;22766;48.042;11.192;2023-02-28T03:38:29;2.17;;;1.95;;
36827;SDS011;22766;48.042;11.192;2023-02-28T03:41:04;2.85;;;1.75;;
36827;SDS011;22766;48.042;11.192;2023-02-28T03:43:36;5.70;;;3.03;;
36827;SDS011;22766;48.042;11.192;2023-02-28T03:46:08;2.80;;;2.00;;
36827;SDS011;22766;48.042;11.192;2023-02-28T03:48:40;3.50;;;2.55;;
36827;SDS011;22766;48.042;11.192;2023-02-28T03:51:11;5.93;;;2.70;;
36827;SDS011;22766;48.042;11.192;2023-02-28T03:53:44;3.70;;;2.00;;
36827;SDS011;22766;48.042;11.192;2023-02-28T03:56:22;2.63;;;1.60;;
36827;SDS011;22766;48.042;11.192;2023-02-28T03:59:03;3.15;;;2.35;;
36827;SDS011;22766;48.042;11.192;2023-02-28T04:01:39;4.70;;;2.22;;
36827;SDS011;22766;48.042;11.192;2023-02-28T04:04:09;3.55;;;2.28;;
36827;SDS011;22766;48.042;11.192;2023-02-28T04:06:37;2.72;;;1.77;;
36827;SDS011;22766;48.042;11.192;2023-02-28T04:09:05;3.30;;;2.00;;
36827;SDS011;22766;48.042;11.192;2023-02-28T04:11:37;3.63;;;2.15;;
36827;SDS011;22766;48.042;11.192;2023-02-28T04:14:06;5.07;;;2.25;;
36827;SDS011;22766;48.042;11.192;2023-02-28T04:16:35;3.03;;;2.50;;
36827;SDS011;22766;48.042;11.192;2023-02-28T04:19:05;7.35;;;2.33;;
36827;SDS011;22766;48.042;11.192;2023-02-28T04:21:43;4.93;;;1.95;;
36827;SDS011;22766;48.042;11.192;2023-02-28T04:24:12;5.88;;;2.72;;
36827;SDS011;22766;48.042;11.192;2023-02-28T04:26:42;4.00;;;2.53;;
36827;SDS011;22766;48.042;11.192;2023-02-28T04:29:11;3.13;;;2.75;;
36827;SDS011;22766;48.042;11.192;2023-02-28T04:31:39;6.70;;;2.70;;
36827;SDS011;22766;48.042;11.192;2023-02-28T04:34:06;4.00;;;2.42;;
36827;SDS011;22766;48.042;11.192;2023-02-28T04:36:33;5.38;;;2.95;;
36827;SDS011;22766;48.042;11.192;2023-02-28T04:39:00;6.70;;;2.70;;
36827;SDS011;22766;48.042;11.192;2023-02-28T04:41:27;6.32;;;2.67;;
36827;SDS011;22766;48.042;11.192;2023-02-28T04:43:57;4.00;;;2.30;;
36827;SDS011;22766;48.042;11.192;2023-02-28T04:46:24;4.55;;;3.30;;
36827;SDS011;22766;48.042;11.192;2023-02-28T04:48:51;3.83;;;2.22;;
36827;SDS011;22766;48.042;11.192;2023-02-28T04:51:18;5.95;;;2.28;;
36827;SDS011;22766;48.042;11.192;2023-02-28T04:53:46;5.75;;;2.53;;
36827;SDS011;22766;48.042;11.192;2023-02-28T04:56:15;2.85;;;2.20;;
36827;SDS011;22766;48.042;11.192;2023-02-28T04:58:43;4.97;;;2.90;;
36827;SDS011;22766;48.042;11.192;2023-02-28T05:03:48;4.88;;;3.10;;
36827;SDS011;22766;48.042;11.192;2023-02-28T05:06:15;6.47;;;3.50;;
36827;SDS011;22766;48.042;11.192;2023-02-28T05:08:42;8.05;;;3.42;;
36827;SDS011;22766;48.042;11.192;2023-02-28T05:11:20;4.88;;;2.65;;
36827;SDS011;22766;48.042;11.192;2023-02-28T05:13:52;8.75;;;3.25;;
36827;SDS011;22766;48.042;11.192;2023-02-28T05:16:19;4.57;;;2.90;;
36827;SDS011;22766;48.042;11.192;2023-02-28T05:18:46;7.32;;;4.28;;
36827;SDS011;22766;48.042;11.192;2023-02-28T05:24:00;7.35;;;3.67;;
36827;SDS011;22766;48.042;11.192;2023-02-28T05:26:29;10.43;;;4.07;;
36827;SDS011;22766;48.042;11.192;2023-02-28T05:28:56;6.93;;;3.88;;
36827;SDS011;22766;48.042;11.192;2023-02-28T05:31:23;6.30;;;3.17;;
36827;SDS011;22766;48.042;11.192;2023-02-28T05:33:51;9.43;;;4.15;;
36827;SDS011;22766;48.042;11.192;2023-02-28T05:36:18;4.90;;;3.58;;
36827;SDS011;22766;48.042;11.192;2023-02-28T05:38:48;7.78;;;3.33;;
36827;SDS011;22766;48.042;11.192;2023-02-28T05:41:15;6.78;;;3.75;;
36827;SDS011;22766;48.042;11.192;2023-02-28T05:43:42;8.02;;;3.92;;
36827;SDS011;22766;48.042;11.192;2023-02-28T05:46:10;7.53;;;4.38;;
36827;SDS011;22766;48.042;11.192;2023-02-28T05:48:38;9.00;;;4.20;;
36827;SDS011;22766;48.042;11.192;2023-02-28T05:51:06;7.07;;;3.83;;
36827;SDS011;22766;48.042;11.192;2023-02-28T05:53:34;9.88;;;3.90;;
36827;SDS011;22766;48.042;11.192;2023-02-28T05:56:02;7.47;;;3.63;;
36827;SDS011;22766;48.042;11.192;2023-02-28T05:58:29;6.65;;;4.28;;
36827;SDS011;22766;48.042;11.192;2023-02-28T06:00:58;6.93;;;3.90;;
36827;SDS011;22766;48.042;11.192;2023-02-28T06:03:25;8.80;;;4.65;;
36827;SDS011;22766;48.042;11.192;2023-02-28T06:05:53;8.23;;;4.60;;
36827;SDS011;22766;48.042;11.192;2023-02-28T06:08:20;8.93;;;5.03;;
36827;SDS011;22766;48.042;11.192;2023-02-28T06:10:47;9.63;;;4.65;;
36827;SDS011;22766;48.042;11.192;2023-02-28T06:13:14;7.72;;;4.68;;
36827;SDS011;22766;48.042;11.192;2023-02-28T06:15:41;6.82;;;4.53;;
36827;SDS011;22766;48.042;11.192;2023-02-28T06:18:08;9.98;;;4.70;;
36827;SDS011;22766;48.042;11.192;2023-02-28T06:20:35;8.90;;;4.90;;
36827;SDS011;22766;48.042;11.192;2023-02-28T06:23:02;5.95;;;4.18;;
36827;SDS011;22766;48.042;11.192;2023-02-28T06:25:29;8.45;;;4.53;;
36827;SDS011;22766;48.042;11.192;2023-02-28T06:27:56;10.70;;;5.03;;
36827;SDS011;22766;48.042;11.192;2023-02-28T06:30:23;9.52;;;5.60;;
36827;SDS011;22766;48.042;11.192;2023-02-28T06:32:52;8.18;;;5.40;;
36827;SDS011;22766;48.042;11.192;2023-02-28T06:35:20;9.48;;;5.38;;
36827;SDS011;22766;48.042;11.192;2023-02-28T06:37:46;9.98;;;5.93;;
36827;SDS011;22766;48.042;11.192;2023-02-28T06:40:13;10.27;;;5.65;;
36827;SDS011;22766;48.042;11.192;2023-02-28T06:42:41;11.68;;;5.22;;
36827;SDS011;22766;48.042;11.192;2023-02-28T06:45:07;10.98;;;5.95;;
36827;SDS011;22766;48.042;11.192;2023-02-28T06:47:37;12.48;;;6.03;;
36827;SDS011;22766;48.042;11.192;2023-02-28T06:50:05;8.23;;;5.43;;
36827;SDS011;22766;48.042;11.192;2023-02-28T06:52:32;12.20;;;5.40;;
36827;SDS011;22766;48.042;11.192;2023-02-28T06:55:03;11.65;;;5.72;;
36827;SDS011;22766;48.042;11.192;2023-02-28T06:57:32;10.82;;;5.20;;
36827;SDS011;22766;48.042;11.192;2023-02-28T07:00:00;8.20;;;5.40;;
36827;SDS011;22766;48.042;11.192;2023-02-28T07:02:29;10.27;;;5.43;;
36827;SDS011;22766;48.042;11.192;2023-02-28T07:04:56;11.57;;;5.50;;
36827;SDS011;22766;48.042;11.192;2023-02-28T07:07:22;12.52;;;6.60;;
36827;SDS011;22766;48.042;11.192;2023-02-28T07:09:49;10.05;;;5.45;;
36827;SDS011;22766;48.042;11.192;2023-02-28T07:12:16;14.18;;;6.80;;
36827;SDS011;22766;48.042;11.192;2023-02-28T07:14:43;8.23;;;5.10;;
36827;SDS011;22766;48.042;11.192;2023-02-28T07:17:10;7.82;;;5.03;;
36827;SDS011;22766;48.042;11.192;2023-02-28T07:19:38;11.13;;;5.70;;
36827;SDS011;22766;48.042;11.192;2023-02-28T07:22:06;8.73;;;4.90;;
36827;SDS011;22766;48.042;11.192;2023-02-28T07:24:33;9.55;;;5.43;;
36827;SDS011;22766;48.042;11.192;2023-02-28T07:27:01;13.48;;;5.00;;
36827;SDS011;22766;48.042;11.192;2023-02-28T07:29:27;9.55;;;5.88;;
36827;SDS011;22766;48.042;11.192;2023-02-28T07:31:55;8.82;;;4.90;;
36827;SDS011;22766;48.042;11.192;2023-02-28T07:34:22;7.88;;;4.75;;
36827;SDS011;22766;48.042;11.192;2023-02-28T07:36:52;11.18;;;5.68;;
36827;SDS011;22766;48.042;11.192;2023-02-28T07:39:20;9.70;;;5.10;;
36827;SDS011;22766;48.042;11.192;2023-02-28T07:41:48;12.63;;;5.65;;
36827;SDS011;22766;48.042;11.192;2023-02-28T07:44:14;9.40;;;5.10;;
36827;SDS011;22766;48.042;11.192;2023-02-28T07:46:41;12.07;;;4.97;;
36827;SDS011;22766;48.042;11.192;2023-02-28T07:49:08;12.23;;;6.13;;
36827;SDS011;22766;48.042;11.192;2023-02-28T07:51:35;12.85;;;6.05;;
36827;SDS011;22766;48.042;11.192;2023-02-28T07:54:02;13.30;;;5.53;;
36827;SDS011;22766;48.042;11.192;2023-02-28T07:56:29;8.48;;;5.05;;
36827;SDS011;22766;48.042;11.192;2023-02-28T07:58:56;8.45;;;4.90;;
36827;SDS011;22766;48.042;11.192;2023-02-28T08:01:22;9.52;;;5.32;;
36827;SDS011;22766;48.042;11.192;2023-02-28T08:03:49;11.45;;;5.85;;
36827;SDS011;22766;48.042;11.192;2023-02-28T08:06:20;7.85;;;4.95;;
36827;SDS011;22766;48.042;11.192;2023-02-28T08:08:49;9.60;;;5.25;;
36827;SDS011;22766;48.042;11.192;2023-02-28T08:11:16;8.55;;;4.65;;
36827;SDS011;22766;48.042;11.192;2023-02-28T08:13:44;8.95;;;5.63;;
36827;SDS011;22766;48.042;11.192;2023-02-28T08:16:12;10.88;;;5.25;;
36827;SDS011;22766;48.042;11.192;2023-02-28T08:18:49;13.18;;;5.40;;
36827;SDS011;22766;48.042;11.192;2023-02-28T08:21:19;13.63;;;6.38;;
36827;SDS011;22766;48.042;11.192;2023-02-28T08:23:48;10.80;;;4.88;;
36827;SDS011;22766;48.042;11.192;2023-02-28T08:26:16;10.13;;;5.43;;
36827;SDS011;22766;48.042;11.192;2023-02-28T08:28:43;10.35;;;5.50;;
36827;SDS011;22766;48.042;11.192;2023-02-28T08:31:11;10.98;;;5.88;;
36827;SDS011;22766;48.042;11.192;2023-02-28T08:33:40;10.27;;;4.93;;
36827;SDS011;22766;48.042;11.192;2023-02-28T08:36:08;10.45;;;5.43;;
36827;SDS011;22766;48.042;11.192;2023-02-28T08:38:35;16.00;;;6.03;;
36827;SDS011;22766;48.042;11.192;2023-02-28T08:41:04;9.60;;;5.85;;
36827;SDS011;22766;48.042;11.192;2023-02-28T08:43:33;8.98;;;5.38;;
36827;SDS011;22766;48.042;11.192;2023-02-28T08:46:01;12.05;;;5.35;;
36827;SDS011;22766;48.042;11.192;2023-02-28T08:48:30;13.00;;;6.22;;
36827;SDS011;22766;48.042;11.192;2023-02-28T08:51:02;9.05;;;5.18;;
36827;SDS011;22766;48.042;11.192;2023-02-28T08:53:33;10.70;;;5.57;;
36827;SDS011;22766;48.042;11.192;2023-02-28T08:56:02;8.13;;;4.30;;
36827;SDS011;22766;48.042;11.192;2023-02-28T08:58:30;14.85;;;6.10;;
36827;SDS011;22766;48.042;11.192;2023-02-28T09:00:58;8.65;;;5.18;;
36827;SDS011;22766;48.042;11.192;2023-02-28T09:03:24;10.40;;;5.68;;
36827;SDS011;22766;48.042;11.192;2023-02-28T09:05:57;10.23;;;6.03;;
36827;SDS011;22766;48.042;11.192;2023-02-28T09:08:26;7.75;;;4.78;;
36827;SDS011;22766;48.042;11.192;2023-02-28T09:10:55;9.60;;;5.28;;
36827;SDS011;22766;48.042;11.192;2023-02-28T09:13:24;9.60;;;5.80;;
36827;SDS011;22766;48.042;11.192;2023-02-28T09:15:52;10.25;;;5.72;;
36827;SDS011;22766;48.042;11.192;2023-02-28T09:18:20;10.07;;;6.13;;
36827;SDS011;22766;48.042;11.192;2023-02-28T09:20:47;9.00;;;5.60;;
36827;SDS011;22766;48.042;11.192;2023-02-28T09:23:13;12.85;;;6.43;;
36827;SDS011;22766;48.042;11.192;2023-02-28T09:25:50;11.10;;;6.00;;
36827;SDS011;22766;48.042;11.192;2023-02-28T09:28:19;10.18;;;5.32;;
36827;SDS011;22766;48.042;11.192;2023-02-28T09:30:48;12.15;;;5.82;;
36827;SDS011;22766;48.042;11.192;2023-02-28T09:33:16;8.90;;;5.70;;
36827;SDS011;22766;48.042;11.192;2023-02-28T09:35:47;8.27;;;5.03;;
36827;SDS011;22766;48.042;11.192;2023-02-28T09:38:15;13.23;;;5.63;;
36827;SDS011;22766;48.042;11.192;2023-02-28T09:40:49;10.20;;;6.07;;
36827;SDS011;22766;48.042;11.192;2023-02-28T09:43:20;13.60;;;5.57;;
36827;SDS011;22766;48.042;11.192;2023-02-28T09:45:57;9.55;;;5.68;;
36827;SDS011;22766;48.042;11.192;2023-02-28T09:48:32;12.73;;;5.65;;
36827;SDS011;22766;48.042;11.192;2023-02-28T09:51:30;8.82;;;5.57;;
36827;SDS011;22766;48.042;11.192;2023-02-28T09:53:58;9.40;;;5.40;;
36827;SDS011;22766;48.042;11.192;2023-02-28T09:56:29;10.48;;;5.72;;
36827;SDS011;22766;48.042;11.192;2023-02-28T10:01:43;12.18;;;5.65;;
36827;SDS011;22766;48.042;11.192;2023-02-28T10:06:53;11.55;;;5.63;;
36827;SDS011;22766;48.042;11.192;2023-02-28T10:11:52;11.80;;;4.95;;
36827;SDS011;22766;48.042;11.192;2023-02-28T10:14:25;9.73;;;6.28;;
36827;SDS011;22766;48.042;11.192;2023-02-28T10:20:00;10.15;;;5.57;;
36827;SDS011;22766;48.042;11.192;2023-02-28T10:22:38;10.60;;;6.47;;
36827;SDS011;22766;48.042;11.192;2023-02-28T10:25:18;13.98;;;7.18;;
36827;SDS011;22766;48.042;11.192;2023-02-28T10:27:52;9.95;;;5.50;;
36827;SDS011;22766;48.042;11.192;2023-02-28T10:30:20;10.15;;;5.20;;
36827;SDS011;22766;48.042;11.192;2023-02-28T10:32:49;12.93;;;6.00;;
36827;SDS011;22766;48.042;11.192;2023-02-28T10:37:49;9.13;;;5.72;;
36827;SDS011;22766;48.042;11.192;2023-02-28T10:43:03;14.45;;;6.57;;
36827;SDS011;22766;48.042;11.192;2023-02-28T10:45:34;14.27;;;6.05;;
36827;SDS011;22766;48.042;11.192;2023-02-28T10:48:29;15.85;;;6.80;;
36827;SDS011;22766;48.042;11.192;2023-02-28T10:50:53;11.40;;;5.75;;
36827;SDS011;22766;48.042;11.192;2023-02-28T10:56:01;15.02;;;6.53;;
36827;SDS011;22766;48.042;11.192;2023-02-28T11:01:21;8.75;;;5.07;;
36827;SDS011;22766;48.042;11.192;2023-02-28T11:04:01;11.98;;;5.40;;
36827;SDS011;22766;48.042;11.192;2023-02-28T11:06:30;11.70;;;6.00;;
36827;SDS011;22766;48.042;11.192;2023-02-28T11:09:05;10.35;;;5.95;;
36827;SDS011;22766;48.042;11.192;2023-02-28T11:11:47;8.65;;;5.45;;
36827;SDS011;22766;48.042;11.192;2023-02-28T11:16:50;9.93;;;5.85;;
36827;SDS011;22766;48.042;11.192;2023-02-28T11:19:20;17.00;;;5.70;;
36827;SDS011;22766;48.042;11.192;2023-02-28T11:21:53;13.93;;;6.95;;
36827;SDS011;22766;48.042;11.192;2023-02-28T11:24:37;8.75;;;5.53;;
36827;SDS011;22766;48.042;11.192;2023-02-28T11:27:39;15.65;;;6.38;;
36827;SDS011;22766;48.042;11.192;2023-02-28T11:30:22;9.27;;;5.85;;
36827;SDS011;22766;48.042;11.192;2023-02-28T11:32:50;10.10;;;5.97;;
36827;SDS011;22766;48.042;11.192;2023-02-28T11:35:19;16.40;;;6.60;;
36827;SDS011;22766;48.042;11.192;2023-02-28T11:37:51;11.90;;;6.05;;
36827;SDS011;22766;48.042;11.192;2023-02-28T11:40:19;9.70;;;6.05;;
36827;SDS011;22766;48.042;11.192;2023-02-28T11:43:02;14.13;;;5.72;;
36827;SDS011;22766;48.042;11.192;2023-02-28T11:46:06;15.98;;;7.18;;
36827;SDS011;22766;48.042;11.192;2023-02-28T11:51:24;15.50;;;6.75;;
36827;SDS011;22766;48.042;11.192;2023-02-28T11:56:40;9.68;;;5.75;;
36827;SDS011;22766;48.042;11.192;2023-02-28T12:07:30;10.05;;;5.57;;
36827;SDS011;22766;48.042;11.192;2023-02-28T12:12:44;11.38;;;5.75;;
36827;SDS011;22766;48.042;11.192;2023-02-28T12:18:20;11.35;;;5.25;;
36827;SDS011;22766;48.042;11.192;2023-02-28T12:20:58;11.98;;;5.88;;
36827;SDS011;22766;48.042;11.192;2023-02-28T12:28:57;11.40;;;6.03;;
36827;SDS011;22766;48.042;11.192;2023-02-28T12:31:33;11.75;;;5.90;;
36827;SDS011;22766;48.042;11.192;2023-02-28T12:34:04;8.88;;;5.38;;
36827;SDS011;22766;48.042;11.192;2023-02-28T12:36:36;10.88;;;6.32;;
36827;SDS011;22766;48.042;11.192;2023-02-28T12:39:06;9.25;;;5.78;;
36827;SDS011;22766;48.042;11.192;2023-02-28T12:44:54;9.52;;;6.47;;
36827;SDS011;22766;48.042;11.192;2023-02-28T12:47:24;9.63;;;5.90;;
36827;SDS011;22766;48.042;11.192;2023-02-28T12:49:52;12.15;;;5.65;;
36827;SDS011;22766;48.042;11.192;2023-02-28T12:52:25;8.48;;;5.00;;
36827;SDS011;22766;48.042;11.192;2023-02-28T12:55:08;11.98;;;5.70;;
36827;SDS011;22766;48.042;11.192;2023-02-28T12:57:48;9.23;;;4.93;;
36827;SDS011;22766;48.042;11.192;2023-02-28T13:00:25;10.95;;;5.30;;
36827;SDS011;22766;48.042;11.192;2023-02-28T13:05:53;9.48;;;5.45;;
36827;SDS011;22766;48.042;11.192;2023-02-28T13:14:06;9.20;;;5.78;;
36827;SDS011;22766;48.042;11.192;2023-02-28T13:22:05;12.57;;;6.57;;
36827;SDS011;22766;48.042;11.192;2023-02-28T13:25:02;13.77;;;6.13;;
36827;SDS011;22766;48.042;11.192;2023-02-28T13:27:38;10.38;;;6.38;;
36827;SDS011;22766;48.042;11.192;2023-02-28T13:33:20;10.57;;;5.78;;
36827;SDS011;22766;48.042;11.192;2023-02-28T13:38:49;10.25;;;5.43;;
36827;SDS011;22766;48.042;11.192;2023-02-28T13:44:04;10.63;;;6.00;;
36827;SDS011;22766;48.042;11.192;2023-02-28T13:46:35;10.18;;;5.50;;
36827;SDS011;22766;48.042;11.192;2023-02-28T13:51:50;8.77;;;5.05;;
36827;SDS011;22766;48.042;11.192;2023-02-28T13:54:34;10.05;;;4.90;;
36827;SDS011;22766;48.042;11.192;2023-02-28T14:02:44;12.52;;;5.47;;
36827;SDS011;22766;48.042;11.192;2023-02-28T14:05:27;9.02;;;5.47;;
36827;SDS011;22766;48.042;11.192;2023-02-28T14:07:59;12.25;;;5.97;;
36827;SDS011;22766;48.042;11.192;2023-02-28T14:10:33;11.13;;;6.50;;
36827;SDS011;22766;48.042;11.192;2023-02-28T14:15:57;11.70;;;6.20;;
36827;SDS011;22766;48.042;11.192;2023-02-28T14:18:33;12.90;;;6.07;;
36827;SDS011;22766;48.042;11.192;2023-02-28T14:21:08;10.00;;;5.57;;
36827;SDS011;22766;48.042;11.192;2023-02-28T14:37:33;8.32;;;5.75;;
36827;SDS011;22766;48.042;11.192;2023-02-28T14:40:11;13.07;;;5.60;;
36827;SDS011;22766;48.042;11.192;2023-02-28T14:42:46;9.70;;;6.30;;
36827;SDS011;22766;48.042;11.192;2023-02-28T14:45:18;8.65;;;5.78;;
36827;SDS011;22766;48.042;11.192;2023-02-28T14:47:47;13.77;;;5.88;;
36827;SDS011;22766;48.042;11.192;2023-02-28T14:50:23;12.30;;;6.35;;
36827;SDS011;22766;48.042;11.192;2023-02-28T14:52:57;11.68;;;6.20;;
36827;SDS011;22766;48.042;11.192;2023-02-28T14:55:32;12.55;;;6.57;;
36827;SDS011;22766;48.042;11.192;2023-02-28T14:58:02;8.60;;;4.75;;
36827;SDS011;22766;48.042;11.192;2023-02-28T15:00:34;9.93;;;4.85;;
36827;SDS011;22766;48.042;11.192;2023-02-28T15:03:20;9.27;;;5.72;;
36827;SDS011;22766;48.042;11.192;2023-02-28T15:05:55;9.32;;;5.78;;
36827;SDS011;22766;48.042;11.192;2023-02-28T15:08:24;11.93;;;6.43;;
36827;SDS011;22766;48.042;11.192;2023-02-28T15:10:56;12.93;;;5.70;;
36827;SDS011;22766;48.042;11.192;2023-02-28T15:13:26;9.85;;;5.35;;
36827;SDS011;22766;48.042;11.192;2023-02-28T15:16:45;7.25;;;4.93;;
36827;SDS011;22766;48.042;11.192;2023-02-28T15:21:41;10.10;;;5.43;;
36827;SDS011;22766;48.042;11.192;2023-02-28T15:26:43;9.77;;;5.13;;
36827;SDS011;22766;48.042;11.192;2023-02-28T15:29:16;9.95;;;5.30;;
36827;SDS011;22766;48.042;11.192;2023-02-28T15:31:51;11.27;;;6.63;;
36827;SDS011;22766;48.042;11.192;2023-02-28T15:40:10;12.70;;;5.90;;
36827;SDS011;22766;48.042;11.192;2023-02-28T15:42:39;10.63;;;5.90;;
36827;SDS011;22766;48.042;11.192;2023-02-28T15:45:25;13.20;;;6.53;;
36827;SDS011;22766;48.042;11.192;2023-02-28T15:47:53;9.98;;;5.75;;
36827;SDS011;22766;48.042;11.192;2023-02-28T15:50:27;13.80;;;6.22;;
36827;SDS011;22766;48.042;11.192;2023-02-28T15:52:56;8.80;;;5.25;;
36827;SDS011;22766;48.042;11.192;2023-02-28T15:55:24;11.07;;;6.22;;
36827;SDS011;22766;48.042;11.192;2023-02-28T15:57:55;8.07;;;5.05;;
36827;SDS011;22766;48.042;11.192;2023-02-28T16:00:26;9.10;;;5.78;;
36827;SDS011;22766;48.042;11.192;2023-02-28T16:02:55;11.45;;;6.07;;
36827;SDS011;22766;48.042;11.192;2023-02-28T16:07:58;11.73;;;5.40;;
36827;SDS011;22766;48.042;11.192;2023-02-28T16:10:30;13.55;;;7.35;;
36827;SDS011;22766;48.042;11.192;2023-02-28T16:12:57;13.25;;;6.80;;
36827;SDS011;22766;48.042;11.192;2023-02-28T16:15:28;14.07;;;7.45;;
36827;SDS011;22766;48.042;11.192;2023-02-28T16:17:57;10.10;;;6.30;;
36827;SDS011;22766;48.042;11.192;2023-02-28T16:20:25;10.90;;;6.22;;
36827;SDS011;22766;48.042;11.192;2023-02-28T16:22:53;12.55;;;6.03;;
36827;SDS011;22766;48.042;11.192;2023-02-28T16:25:23;12.13;;;6.47;;
36827;SDS011;22766;48.042;11.192;2023-02-28T16:27:54;12.77;;;6.18;;
36827;SDS011;22766;48.042;11.192;2023-02-28T16:30:24;11.57;;;6.45;;
36827;SDS011;22766;48.042;11.192;2023-02-28T16:32:53;11.90;;;5.50;;
36827;SDS011;22766;48.042;11.192;2023-02-28T16:35:22;15.82;;;6.03;;
36827;SDS011;22766;48.042;11.192;2023-02-28T16:37:52;10.55;;;6.63;;
36827;SDS011;22766;48.042;11.192;2023-02-28T16:40:22;11.77;;;6.55;;
36827;SDS011;22766;48.042;11.192;2023-02-28T16:42:52;15.82;;;8.27;;
36827;SDS011;22766;48.042;11.192;2023-02-28T16:45:25;11.98;;;6.68;;
36827;SDS011;22766;48.042;11.192;2023-02-28T16:47:54;11.93;;;5.95;;
36827;SDS011;22766;48.042;11.192;2023-02-28T16:50:22;14.32;;;6.50;;
36827;SDS011;22766;48.042;11.192;2023-02-28T16:52:51;10.40;;;5.82;;
36827;SDS011;22766;48.042;11.192;2023-02-28T16:55:22;14.05;;;7.50;;
36827;SDS011;22766;48.042;11.192;2023-02-28T16:57:57;11.77;;;6.55;;
36827;SDS011;22766;48.042;11.192;2023-02-28T17:00:27;12.45;;;7.05;;
36827;SDS011;22766;48.042;11.192;2023-02-28T17:02:55;12.18;;;6.80;;
36827;SDS011;22766;48.042;11.192;2023-02-28T17:05:22;11.85;;;5.78;;
36827;SDS011;22766;48.042;11.192;2023-02-28T17:07:50;12.50;;;7.03;;
36827;SDS011;22766;48.042;11.192;2023-02-28T17:10:18;11.88;;;7.63;;
36827;SDS011;22766;48.042;11.192;2023-02-28T17:12:46;14.98;;;7.25;;
36827;SDS011;22766;48.042;11.192;2023-02-28T17:15:14;10.77;;;6.85;;
36827;SDS011;22766;48.042;11.192;2023-02-28T17:17:42;12.85;;;7.70;;
36827;SDS011;22766;48.042;11.192;2023-02-28T17:20:19;12.23;;;6.60;;
36827;SDS011;22766;48.042;11.192;2023-02-28T17:22:52;14.32;;;7.00;;
36827;SDS011;22766;48.042;11.192;2023-02-28T17:25:20;10.02;;;6.60;;
36827;SDS011;22766;48.042;11.192;2023-02-28T17:27:47;15.50;;;6.78;;
36827;SDS011;22766;48.042;11.192;2023-02-28T17:30:19;10.85;;;6.80;;
36827;SDS011;22766;48.042;11.192;2023-02-28T17:35:13;10.38;;;5.25;;
36827;SDS011;22766;48.042;11.192;2023-02-28T17:37:40;10.52;;;6.15;;
36827;SDS011;22766;48.042;11.192;2023-02-28T17:40:15;12.27;;;6.28;;
36827;SDS011;22766;48.042;11.192;2023-02-28T17:42:43;11.20;;;6.25;;